sensor_id;sensor_type;location;lat;lon;timestamp;temperature;humidity
6260;DHT22;3163;51.516;4.000;2023-04-24T00:01:24;13.50;99.90
6260;DHT22;3163;51.516;4.000;2023-04-24T00:03:49;13.40;99.90
6260;DHT22;3163;51.516;4.000;2023-04-24T00:06:15;13.40;99.90
6260;DHT22;3163;51.516;4.000;2023-04-24T00:08:42;13.40;99.90
6260;DHT22;3163;51.516;4.000;2023-04-24T00:11:08;13.50;99.90
6260;DHT22;3163;51.516;4.000;2023-04-24T00:13:34;13.50;99.90
6260;DHT22;3163;51.516;4.000;2023-04-24T00:16:00;13.40;99.90
6260;DHT22;3163;51.516;4.000;2023-04-24T00:18:26;13.50;99.90
6260;DHT22;3163;51.516;4.000;2023-04-24T00:20:52;13.50;99.90
6260;DHT22;3163;51.516;4.000;2023-04-24T00:23:17;13.50;99.90
6260;DHT22;3163;51.516;4.000;2023-04-24T00:25:43;13.40;99.90
6260;DHT22;3163;51.516;4.000;2023-04-24T00:28:09;13.40;99.90
6260;DHT22;3163;51.516;4.000;2023-04-24T00:30:34;13.50;99.90
6260;DHT22;3163;51.516;4.000;2023-04-24T00:33:00;13.40;99.90
6260;DHT22;3163;51.516;4.000;2023-04-24T00:35:25;13.50;99.90
6260;DHT22;3163;51.516;4.000;2023-04-24T00:37:51;13.50;99.90
6260;DHT22;3163;51.516;4.000;2023-04-24T00:40:17;13.50;99.90
6260;DHT22;3163;51.516;4.000;2023-04-24T00:42:43;13.50;99.90
6260;DHT22;3163;51.516;4.000;2023-04-24T00:45:10;13.40;99.90
6260;DHT22;3163;51.516;4.000;2023-04-24T00:47:36;13.40;99.90
6260;DHT22;3163;51.516;4.000;2023-04-24T00:50:03;13.40;99.90
6260;DHT22;3163;51.516;4.000;2023-04-24T00:52:29;13.40;99.90
6260;DHT22;3163;51.516;4.000;2023-04-24T00:54:56;13.40;99.90
6260;DHT22;3163;51.516;4.000;2023-04-24T00:57:22;13.40;99.90
6260;DHT22;3163;51.516;4.000;2023-04-24T00:59:49;13.40;99.90
6260;DHT22;3163;51.516;4.000;2023-04-24T01:02:15;13.40;99.90
6260;DHT22;3163;51.516;4.000;2023-04-24T01:04:41;13.40;99.90
6260;DHT22;3163;51.516;4.000;2023-04-24T01:07:07;13.40;99.90
6260;DHT22;3163;51.516;4.000;2023-04-24T01:09:40;13.40;99.90
6260;DHT22;3163;51.516;4.000;2023-04-24T01:12:07;13.40;99.90
6260;DHT22;3163;51.516;4.000;2023-04-24T01:14:33;13.50;99.90
6260;DHT22;3163;51.516;4.000;2023-04-24T01:16:59;13.40;99.90
6260;DHT22;3163;51.516;4.000;2023-04-24T01:19:24;13.40;99.90
6260;DHT22;3163;51.516;4.000;2023-04-24T01:21:53;13.40;99.90
6260;DHT22;3163;51.516;4.000;2023-04-24T01:24:19;13.40;99.90
6260;DHT22;3163;51.516;4.000;2023-04-24T01:26:45;13.30;99.90
6260;DHT22;3163;51.516;4.000;2023-04-24T01:29:11;13.30;99.90
6260;DHT22;3163;51.516;4.000;2023-04-24T01:31:38;13.30;99.90
6260;DHT22;3163;51.516;4.000;2023-04-24T01:34:05;13.30;99.90
6260;DHT22;3163;51.516;4.000;2023-04-24T01:36:32;13.30;99.90
6260;DHT22;3163;51.516;4.000;2023-04-24T01:38:58;13.30;99.90
6260;DHT22;3163;51.516;4.000;2023-04-24T01:41:24;13.30;99.90
6260;DHT22;3163;51.516;4.000;2023-04-24T01:43:50;13.30;99.90
6260;DHT22;3163;51.516;4.000;2023-04-24T01:46:16;13.30;99.90
6260;DHT22;3163;51.516;4.000;2023-04-24T01:48:42;13.30;99.90
6260;DHT22;3163;51.516;4.000;2023-04-24T01:51:08;13.30;99.90
6260;DHT22;3163;51.516;4.000;2023-04-24T01:53:33;13.30;99.90
6260;DHT22;3163;51.516;4.000;2023-04-24T01:55:59;13.30;99.90
6260;DHT22;3163;51.516;4.000;2023-04-24T01:58:26;13.30;99.90
6260;DHT22;3163;51.516;4.000;2023-04-24T02:00:52;13.30;99.90
6260;DHT22;3163;51.516;4.000;2023-04-24T02:03:18;13.20;99.90
6260;DHT22;3163;51.516;4.000;2023-04-24T02:05:44;13.20;99.90
6260;DHT22;3163;51.516;4.000;2023-04-24T02:08:10;13.20;99.90
6260;DHT22;3163;51.516;4.000;2023-04-24T02:10:36;13.20;99.90
6260;DHT22;3163;51.516;4.000;2023-04-24T02:13:01;13.20;99.90
6260;DHT22;3163;51.516;4.000;2023-04-24T02:15:27;13.20;99.90
6260;DHT22;3163;51.516;4.000;2023-04-24T02:17:53;13.30;99.90
6260;DHT22;3163;51.516;4.000;2023-04-24T02:20:18;13.30;99.90
6260;DHT22;3163;51.516;4.000;2023-04-24T02:22:44;13.30;99.90
6260;DHT22;3163;51.516;4.000;2023-04-24T02:25:10;13.30;99.90
6260;DHT22;3163;51.516;4.000;2023-04-24T02:27:36;13.20;99.90
6260;DHT22;3163;51.516;4.000;2023-04-24T02:30:01;13.30;99.90
6260;DHT22;3163;51.516;4.000;2023-04-24T02:32:28;13.10;99.90
6260;DHT22;3163;51.516;4.000;2023-04-24T02:34:54;13.20;99.90
6260;DHT22;3163;51.516;4.000;2023-04-24T02:37:19;13.20;99.90
6260;DHT22;3163;51.516;4.000;2023-04-24T02:39:45;13.30;99.90
6260;DHT22;3163;51.516;4.000;2023-04-24T02:42:11;13.20;99.90
6260;DHT22;3163;51.516;4.000;2023-04-24T02:44:36;13.20;99.90
6260;DHT22;3163;51.516;4.000;2023-04-24T02:47:02;13.20;99.90
6260;DHT22;3163;51.516;4.000;2023-04-24T02:49:27;13.20;99.90
6260;DHT22;3163;51.516;4.000;2023-04-24T02:51:53;13.10;99.90
6260;DHT22;3163;51.516;4.000;2023-04-24T02:54:18;13.10;99.90
6260;DHT22;3163;51.516;4.000;2023-04-24T02:56:44;13.10;99.90
6260;DHT22;3163;51.516;4.000;2023-04-24T02:59:10;13.20;99.90
6260;DHT22;3163;51.516;4.000;2023-04-24T03:01:35;13.20;99.90
6260;DHT22;3163;51.516;4.000;2023-04-24T03:04:01;13.10;99.90
6260;DHT22;3163;51.516;4.000;2023-04-24T03:06:27;13.10;99.90
6260;DHT22;3163;51.516;4.000;2023-04-24T03:08:53;13.10;99.90
6260;DHT22;3163;51.516;4.000;2023-04-24T03:11:19;13.20;99.90
6260;DHT22;3163;51.516;4.000;2023-04-24T03:13:45;13.10;99.90
6260;DHT22;3163;51.516;4.000;2023-04-24T03:16:11;13.20;99.90
6260;DHT22;3163;51.516;4.000;2023-04-24T03:18:36;13.20;99.90
6260;DHT22;3163;51.516;4.000;2023-04-24T03:21:02;13.20;99.90
6260;DHT22;3163;51.516;4.000;2023-04-24T03:23:28;13.20;99.90
6260;DHT22;3163;51.516;4.000;2023-04-24T03:25:54;13.20;99.90
6260;DHT22;3163;51.516;4.000;2023-04-24T03:28:20;13.20;99.90
6260;DHT22;3163;51.516;4.000;2023-04-24T03:30:46;13.10;99.90
6260;DHT22;3163;51.516;4.000;2023-04-24T03:33:11;13.10;99.90
6260;DHT22;3163;51.516;4.000;2023-04-24T03:35:37;13.10;99.90
6260;DHT22;3163;51.516;4.000;2023-04-24T03:38:02;13.10;99.90
6260;DHT22;3163;51.516;4.000;2023-04-24T03:40:30;13.10;99.90
6260;DHT22;3163;51.516;4.000;2023-04-24T03:42:55;13.10;99.90
6260;DHT22;3163;51.516;4.000;2023-04-24T03:45:21;13.00;99.90
6260;DHT22;3163;51.516;4.000;2023-04-24T03:47:47;13.10;99.90
6260;DHT22;3163;51.516;4.000;2023-04-24T03:50:12;13.10;99.90
6260;DHT22;3163;51.516;4.000;2023-04-24T03:52:38;13.10;99.90
6260;DHT22;3163;51.516;4.000;2023-04-24T03:55:04;13.10;99.90
6260;DHT22;3163;51.516;4.000;2023-04-24T03:57:29;13.10;99.90
6260;DHT22;3163;51.516;4.000;2023-04-24T03:59:55;13.10;99.90
6260;DHT22;3163;51.516;4.000;2023-04-24T04:02:21;13.10;99.90
6260;DHT22;3163;51.516;4.000;2023-04-24T04:04:46;13.20;99.90
6260;DHT22;3163;51.516;4.000;2023-04-24T04:07:12;13.20;99.90
6260;DHT22;3163;51.516;4.000;2023-04-24T04:09:38;13.10;99.90
6260;DHT22;3163;51.516;4.000;2023-04-24T04:12:03;13.10;99.90
6260;DHT22;3163;51.516;4.000;2023-04-24T04:14:29;13.10;99.90
6260;DHT22;3163;51.516;4.000;2023-04-24T04:16:55;13.10;99.90
6260;DHT22;3163;51.516;4.000;2023-04-24T04:19:20;13.10;99.90
6260;DHT22;3163;51.516;4.000;2023-04-24T04:21:46;13.10;99.90
6260;DHT22;3163;51.516;4.000;2023-04-24T04:24:16;13.10;99.90
6260;DHT22;3163;51.516;4.000;2023-04-24T04:26:41;13.10;99.90
6260;DHT22;3163;51.516;4.000;2023-04-24T04:29:11;13.10;99.90
6260;DHT22;3163;51.516;4.000;2023-04-24T04:31:37;13.10;99.90
6260;DHT22;3163;51.516;4.000;2023-04-24T04:34:02;13.00;99.90
6260;DHT22;3163;51.516;4.000;2023-04-24T04:36:28;13.00;99.90
6260;DHT22;3163;51.516;4.000;2023-04-24T04:38:54;13.00;99.90
6260;DHT22;3163;51.516;4.000;2023-04-24T04:41:20;13.00;99.90
6260;DHT22;3163;51.516;4.000;2023-04-24T04:43:45;13.00;99.90
6260;DHT22;3163;51.516;4.000;2023-04-24T04:46:12;13.00;99.90
6260;DHT22;3163;51.516;4.000;2023-04-24T04:48:38;13.10;99.90
6260;DHT22;3163;51.516;4.000;2023-04-24T04:51:04;13.00;99.90
6260;DHT22;3163;51.516;4.000;2023-04-24T04:53:30;12.90;99.90
6260;DHT22;3163;51.516;4.000;2023-04-24T04:55:56;13.00;99.90
6260;DHT22;3163;51.516;4.000;2023-04-24T04:58:22;13.00;99.90
6260;DHT22;3163;51.516;4.000;2023-04-24T05:00:47;12.90;99.90
6260;DHT22;3163;51.516;4.000;2023-04-24T05:03:14;13.00;99.90
6260;DHT22;3163;51.516;4.000;2023-04-24T05:05:39;13.00;99.90
6260;DHT22;3163;51.516;4.000;2023-04-24T05:08:07;13.00;99.90
6260;DHT22;3163;51.516;4.000;2023-04-24T05:10:32;13.00;99.90
6260;DHT22;3163;51.516;4.000;2023-04-24T05:12:58;12.90;99.90
6260;DHT22;3163;51.516;4.000;2023-04-24T05:15:24;13.00;99.90
6260;DHT22;3163;51.516;4.000;2023-04-24T05:17:49;13.00;99.90
6260;DHT22;3163;51.516;4.000;2023-04-24T05:20:15;13.00;99.90
6260;DHT22;3163;51.516;4.000;2023-04-24T05:22:41;13.00;99.90
6260;DHT22;3163;51.516;4.000;2023-04-24T05:25:07;13.00;99.90
6260;DHT22;3163;51.516;4.000;2023-04-24T05:27:33;13.00;99.90
6260;DHT22;3163;51.516;4.000;2023-04-24T05:29:58;13.10;99.90
6260;DHT22;3163;51.516;4.000;2023-04-24T05:32:24;13.10;99.90
6260;DHT22;3163;51.516;4.000;2023-04-24T05:34:50;13.10;99.90
6260;DHT22;3163;51.516;4.000;2023-04-24T05:37:16;13.10;99.90
6260;DHT22;3163;51.516;4.000;2023-04-24T05:39:42;13.10;99.90
6260;DHT22;3163;51.516;4.000;2023-04-24T05:42:08;13.20;99.90
6260;DHT22;3163;51.516;4.000;2023-04-24T05:44:33;13.10;99.90
6260;DHT22;3163;51.516;4.000;2023-04-24T05:46:59;13.10;99.90
6260;DHT22;3163;51.516;4.000;2023-04-24T05:49:24;13.10;99.90
6260;DHT22;3163;51.516;4.000;2023-04-24T05:51:50;13.10;99.90
6260;DHT22;3163;51.516;4.000;2023-04-24T05:54:15;13.10;99.90
6260;DHT22;3163;51.516;4.000;2023-04-24T05:56:41;13.20;99.90
6260;DHT22;3163;51.516;4.000;2023-04-24T05:59:08;13.10;99.90
6260;DHT22;3163;51.516;4.000;2023-04-24T06:01:33;13.20;99.90
6260;DHT22;3163;51.516;4.000;2023-04-24T06:03:59;13.20;99.90
6260;DHT22;3163;51.516;4.000;2023-04-24T06:06:25;13.20;99.90
6260;DHT22;3163;51.516;4.000;2023-04-24T06:08:51;13.30;99.90
6260;DHT22;3163;51.516;4.000;2023-04-24T06:11:17;13.30;99.90
6260;DHT22;3163;51.516;4.000;2023-04-24T06:13:42;13.30;99.90
6260;DHT22;3163;51.516;4.000;2023-04-24T06:16:08;13.40;99.90
6260;DHT22;3163;51.516;4.000;2023-04-24T06:18:33;13.40;99.90
6260;DHT22;3163;51.516;4.000;2023-04-24T06:20:59;13.40;99.90
6260;DHT22;3163;51.516;4.000;2023-04-24T06:23:25;13.50;99.90
6260;DHT22;3163;51.516;4.000;2023-04-24T06:25:51;13.50;99.90
6260;DHT22;3163;51.516;4.000;2023-04-24T06:28:16;13.50;99.90
6260;DHT22;3163;51.516;4.000;2023-04-24T06:30:42;13.50;99.90
6260;DHT22;3163;51.516;4.000;2023-04-24T06:33:09;13.50;99.90
6260;DHT22;3163;51.516;4.000;2023-04-24T06:35:36;13.50;99.90
6260;DHT22;3163;51.516;4.000;2023-04-24T06:38:01;13.50;99.90
6260;DHT22;3163;51.516;4.000;2023-04-24T06:40:27;13.60;99.90
6260;DHT22;3163;51.516;4.000;2023-04-24T06:42:52;13.60;99.90
6260;DHT22;3163;51.516;4.000;2023-04-24T06:45:18;13.60;99.90
6260;DHT22;3163;51.516;4.000;2023-04-24T06:47:44;13.50;99.90
6260;DHT22;3163;51.516;4.000;2023-04-24T06:50:10;13.50;99.90
6260;DHT22;3163;51.516;4.000;2023-04-24T06:52:36;13.50;99.90
6260;DHT22;3163;51.516;4.000;2023-04-24T06:55:03;13.60;99.90
6260;DHT22;3163;51.516;4.000;2023-04-24T06:57:29;13.60;99.90
6260;DHT22;3163;51.516;4.000;2023-04-24T06:59:55;13.70;99.90
6260;DHT22;3163;51.516;4.000;2023-04-24T07:02:20;13.70;99.90
6260;DHT22;3163;51.516;4.000;2023-04-24T07:04:46;13.70;99.90
6260;DHT22;3163;51.516;4.000;2023-04-24T07:07:13;13.70;99.90
6260;DHT22;3163;51.516;4.000;2023-04-24T07:09:39;13.70;99.90
6260;DHT22;3163;51.516;4.000;2023-04-24T07:12:08;13.80;99.90
6260;DHT22;3163;51.516;4.000;2023-04-24T07:14:33;13.80;99.90
6260;DHT22;3163;51.516;4.000;2023-04-24T07:16:59;13.80;99.90
6260;DHT22;3163;51.516;4.000;2023-04-24T07:19:25;13.90;99.90
6260;DHT22;3163;51.516;4.000;2023-04-24T07:21:50;13.80;99.90
6260;DHT22;3163;51.516;4.000;2023-04-24T07:24:16;13.90;99.90
6260;DHT22;3163;51.516;4.000;2023-04-24T07:26:41;14.00;99.90
6260;DHT22;3163;51.516;4.000;2023-04-24T07:29:07;14.00;99.90
6260;DHT22;3163;51.516;4.000;2023-04-24T07:31:33;13.90;99.90
6260;DHT22;3163;51.516;4.000;2023-04-24T07:33:58;13.80;99.90
6260;DHT22;3163;51.516;4.000;2023-04-24T07:36:24;13.80;99.90
6260;DHT22;3163;51.516;4.000;2023-04-24T07:38:51;13.80;99.90
6260;DHT22;3163;51.516;4.000;2023-04-24T07:41:17;13.70;99.90
6260;DHT22;3163;51.516;4.000;2023-04-24T07:43:43;13.80;99.90
6260;DHT22;3163;51.516;4.000;2023-04-24T07:46:09;14.00;99.90
6260;DHT22;3163;51.516;4.000;2023-04-24T07:48:35;13.80;99.90
6260;DHT22;3163;51.516;4.000;2023-04-24T07:51:01;13.90;99.90
6260;DHT22;3163;51.516;4.000;2023-04-24T07:53:27;13.90;99.90
6260;DHT22;3163;51.516;4.000;2023-04-24T07:55:54;14.00;99.90
6260;DHT22;3163;51.516;4.000;2023-04-24T07:58:20;14.00;99.90
6260;DHT22;3163;51.516;4.000;2023-04-24T08:00:46;14.10;99.90
6260;DHT22;3163;51.516;4.000;2023-04-24T08:03:12;14.00;99.90
6260;DHT22;3163;51.516;4.000;2023-04-24T08:05:38;14.10;99.90
6260;DHT22;3163;51.516;4.000;2023-04-24T08:08:03;14.10;99.90
6260;DHT22;3163;51.516;4.000;2023-04-24T08:10:29;14.20;99.90
6260;DHT22;3163;51.516;4.000;2023-04-24T08:12:55;14.10;99.90
6260;DHT22;3163;51.516;4.000;2023-04-24T08:15:20;14.00;99.90
6260;DHT22;3163;51.516;4.000;2023-04-24T08:17:46;14.30;99.90
6260;DHT22;3163;51.516;4.000;2023-04-24T08:20:12;14.30;99.90
6260;DHT22;3163;51.516;4.000;2023-04-24T08:22:41;14.40;99.90
6260;DHT22;3163;51.516;4.000;2023-04-24T08:25:08;14.30;99.90
6260;DHT22;3163;51.516;4.000;2023-04-24T08:27:34;14.40;99.90
6260;DHT22;3163;51.516;4.000;2023-04-24T08:29:59;14.40;99.90
6260;DHT22;3163;51.516;4.000;2023-04-24T08:32:25;14.50;99.90
6260;DHT22;3163;51.516;4.000;2023-04-24T08:34:54;14.60;99.90
6260;DHT22;3163;51.516;4.000;2023-04-24T08:37:22;14.40;99.90
6260;DHT22;3163;51.516;4.000;2023-04-24T08:39:47;14.50;99.90
6260;DHT22;3163;51.516;4.000;2023-04-24T08:42:13;14.40;99.90
6260;DHT22;3163;51.516;4.000;2023-04-24T08:44:40;14.50;99.90
6260;DHT22;3163;51.516;4.000;2023-04-24T08:47:07;14.40;99.90
6260;DHT22;3163;51.516;4.000;2023-04-24T08:49:33;14.40;99.90
6260;DHT22;3163;51.516;4.000;2023-04-24T08:52:01;14.30;99.90
6260;DHT22;3163;51.516;4.000;2023-04-24T08:54:28;14.30;99.90
6260;DHT22;3163;51.516;4.000;2023-04-24T08:56:54;14.20;99.90
6260;DHT22;3163;51.516;4.000;2023-04-24T08:59:23;14.20;99.90
6260;DHT22;3163;51.516;4.000;2023-04-24T09:01:51;14.20;99.90
6260;DHT22;3163;51.516;4.000;2023-04-24T09:04:17;14.20;99.90
6260;DHT22;3163;51.516;4.000;2023-04-24T09:06:45;14.20;99.90
6260;DHT22;3163;51.516;4.000;2023-04-24T09:09:11;14.10;99.90
6260;DHT22;3163;51.516;4.000;2023-04-24T09:11:37;14.20;99.90
6260;DHT22;3163;51.516;4.000;2023-04-24T09:14:03;14.20;99.90
6260;DHT22;3163;51.516;4.000;2023-04-24T09:16:29;14.20;99.90
6260;DHT22;3163;51.516;4.000;2023-04-24T09:18:55;14.20;99.90
6260;DHT22;3163;51.516;4.000;2023-04-24T09:21:22;14.30;99.90
6260;DHT22;3163;51.516;4.000;2023-04-24T09:24:01;14.30;99.90
6260;DHT22;3163;51.516;4.000;2023-04-24T09:26:32;14.30;99.90
6260;DHT22;3163;51.516;4.000;2023-04-24T09:28:58;14.30;99.90
6260;DHT22;3163;51.516;4.000;2023-04-24T09:31:27;14.40;99.90
6260;DHT22;3163;51.516;4.000;2023-04-24T09:34:01;14.30;99.90
6260;DHT22;3163;51.516;4.000;2023-04-24T09:36:30;14.40;99.90
6260;DHT22;3163;51.516;4.000;2023-04-24T09:39:02;14.40;99.90
6260;DHT22;3163;51.516;4.000;2023-04-24T09:41:28;14.20;99.90
6260;DHT22;3163;51.516;4.000;2023-04-24T09:43:57;14.20;99.90
6260;DHT22;3163;51.516;4.000;2023-04-24T09:46:30;14.20;99.90
6260;DHT22;3163;51.516;4.000;2023-04-24T09:49:08;14.10;99.90
6260;DHT22;3163;51.516;4.000;2023-04-24T09:51:36;14.20;99.90
6260;DHT22;3163;51.516;4.000;2023-04-24T09:54:03;14.20;99.90
6260;DHT22;3163;51.516;4.000;2023-04-24T09:56:33;14.20;99.90
6260;DHT22;3163;51.516;4.000;2023-04-24T09:59:07;14.20;99.90
6260;DHT22;3163;51.516;4.000;2023-04-24T10:01:33;14.10;99.90
6260;DHT22;3163;51.516;4.000;2023-04-24T10:03:59;14.20;99.90
6260;DHT22;3163;51.516;4.000;2023-04-24T10:06:34;14.10;99.90
6260;DHT22;3163;51.516;4.000;2023-04-24T10:09:00;14.20;99.90
6260;DHT22;3163;51.516;4.000;2023-04-24T10:11:29;14.20;99.90
6260;DHT22;3163;51.516;4.000;2023-04-24T10:13:55;14.20;99.90
6260;DHT22;3163;51.516;4.000;2023-04-24T10:16:24;14.10;99.90
6260;DHT22;3163;51.516;4.000;2023-04-24T10:18:52;14.20;99.90
6260;DHT22;3163;51.516;4.000;2023-04-24T10:21:18;14.30;99.90
6260;DHT22;3163;51.516;4.000;2023-04-24T10:23:44;14.20;99.90
6260;DHT22;3163;51.516;4.000;2023-04-24T10:26:16;14.20;99.90
6260;DHT22;3163;51.516;4.000;2023-04-24T10:28:46;14.10;99.90
6260;DHT22;3163;51.516;4.000;2023-04-24T10:31:13;14.10;99.90
6260;DHT22;3163;51.516;4.000;2023-04-24T10:33:41;14.00;99.90
6260;DHT22;3163;51.516;4.000;2023-04-24T10:36:09;14.20;99.90
6260;DHT22;3163;51.516;4.000;2023-04-24T10:38:35;14.30;99.90
6260;DHT22;3163;51.516;4.000;2023-04-24T10:41:12;14.30;99.90
6260;DHT22;3163;51.516;4.000;2023-04-24T10:46:30;14.50;99.90
6260;DHT22;3163;51.516;4.000;2023-04-24T10:48:56;14.30;99.90
6260;DHT22;3163;51.516;4.000;2023-04-24T10:51:24;14.50;99.90
6260;DHT22;3163;51.516;4.000;2023-04-24T10:53:51;14.40;99.90
6260;DHT22;3163;51.516;4.000;2023-04-24T10:56:17;14.50;99.90
6260;DHT22;3163;51.516;4.000;2023-04-24T10:58:51;14.50;99.90
6260;DHT22;3163;51.516;4.000;2023-04-24T11:01:25;14.60;99.90
6260;DHT22;3163;51.516;4.000;2023-04-24T11:03:58;14.70;99.90
6260;DHT22;3163;51.516;4.000;2023-04-24T11:06:35;14.80;99.90
6260;DHT22;3163;51.516;4.000;2023-04-24T11:09:08;14.70;99.90
6260;DHT22;3163;51.516;4.000;2023-04-24T11:11:38;14.70;99.90
6260;DHT22;3163;51.516;4.000;2023-04-24T11:14:07;14.70;99.90
6260;DHT22;3163;51.516;4.000;2023-04-24T11:16:52;14.60;99.90
6260;DHT22;3163;51.516;4.000;2023-04-24T11:19:22;14.70;99.90
6260;DHT22;3163;51.516;4.000;2023-04-24T11:26:59;14.60;99.90
6260;DHT22;3163;51.516;4.000;2023-04-24T11:29:43;14.40;99.90
6260;DHT22;3163;51.516;4.000;2023-04-24T11:34:46;14.60;99.90
6260;DHT22;3163;51.516;4.000;2023-04-24T11:37:13;14.60;99.90
6260;DHT22;3163;51.516;4.000;2023-04-24T11:39:38;14.60;99.90
6260;DHT22;3163;51.516;4.000;2023-04-24T11:42:04;14.50;99.90
6260;DHT22;3163;51.516;4.000;2023-04-24T11:44:33;14.40;99.90
6260;DHT22;3163;51.516;4.000;2023-04-24T11:46:59;14.40;99.90
6260;DHT22;3163;51.516;4.000;2023-04-24T11:49:25;14.30;99.90
6260;DHT22;3163;51.516;4.000;2023-04-24T11:51:55;14.30;99.90
6260;DHT22;3163;51.516;4.000;2023-04-24T11:54:20;14.10;99.90
6260;DHT22;3163;51.516;4.000;2023-04-24T11:56:47;14.00;99.90
6260;DHT22;3163;51.516;4.000;2023-04-24T11:59:13;14.20;99.90
6260;DHT22;3163;51.516;4.000;2023-04-24T12:01:45;14.40;99.90
6260;DHT22;3163;51.516;4.000;2023-04-24T12:04:11;14.40;99.90
6260;DHT22;3163;51.516;4.000;2023-04-24T12:06:37;14.40;99.90
6260;DHT22;3163;51.516;4.000;2023-04-24T12:09:03;14.30;99.90
6260;DHT22;3163;51.516;4.000;2023-04-24T12:11:29;14.30;99.90
6260;DHT22;3163;51.516;4.000;2023-04-24T12:13:55;14.40;99.90
6260;DHT22;3163;51.516;4.000;2023-04-24T12:16:20;14.50;99.90
6260;DHT22;3163;51.516;4.000;2023-04-24T12:18:46;14.40;99.90
6260;DHT22;3163;51.516;4.000;2023-04-24T12:21:20;14.40;99.90
6260;DHT22;3163;51.516;4.000;2023-04-24T12:23:46;14.50;99.90
6260;DHT22;3163;51.516;4.000;2023-04-24T12:26:18;14.60;99.90
6260;DHT22;3163;51.516;4.000;2023-04-24T12:28:47;14.60;99.90
6260;DHT22;3163;51.516;4.000;2023-04-24T12:31:14;14.60;99.90
6260;DHT22;3163;51.516;4.000;2023-04-24T12:33:41;14.70;99.90
6260;DHT22;3163;51.516;4.000;2023-04-24T12:36:09;14.80;99.90
6260;DHT22;3163;51.516;4.000;2023-04-24T12:38:35;14.70;99.90
6260;DHT22;3163;51.516;4.000;2023-04-24T12:41:07;14.70;99.90
6260;DHT22;3163;51.516;4.000;2023-04-24T12:43:33;14.80;99.90
6260;DHT22;3163;51.516;4.000;2023-04-24T12:45:59;14.80;99.90
6260;DHT22;3163;51.516;4.000;2023-04-24T12:48:28;14.90;99.90
6260;DHT22;3163;51.516;4.000;2023-04-24T12:50:54;14.90;99.90
6260;DHT22;3163;51.516;4.000;2023-04-24T12:53:22;14.80;99.90
6260;DHT22;3163;51.516;4.000;2023-04-24T12:55:47;14.80;99.90
6260;DHT22;3163;51.516;4.000;2023-04-24T12:58:22;14.70;99.90
6260;DHT22;3163;51.516;4.000;2023-04-24T13:00:48;14.80;99.90
6260;DHT22;3163;51.516;4.000;2023-04-24T13:03:14;14.80;99.90
6260;DHT22;3163;51.516;4.000;2023-04-24T13:05:40;14.70;99.90
6260;DHT22;3163;51.516;4.000;2023-04-24T13:08:05;14.60;99.90
6260;DHT22;3163;51.516;4.000;2023-04-24T13:10:31;14.60;99.90
6260;DHT22;3163;51.516;4.000;2023-04-24T13:12:57;14.70;99.90
6260;DHT22;3163;51.516;4.000;2023-04-24T13:15:22;14.60;99.90
6260;DHT22;3163;51.516;4.000;2023-04-24T13:17:48;14.60;99.90
6260;DHT22;3163;51.516;4.000;2023-04-24T13:20:13;14.60;99.90
6260;DHT22;3163;51.516;4.000;2023-04-24T13:22:39;14.70;99.90
6260;DHT22;3163;51.516;4.000;2023-04-24T13:25:05;14.60;99.90
6260;DHT22;3163;51.516;4.000;2023-04-24T13:27:31;14.60;99.90
6260;DHT22;3163;51.516;4.000;2023-04-24T13:29:57;14.60;99.90
6260;DHT22;3163;51.516;4.000;2023-04-24T13:32:22;14.50;99.90
6260;DHT22;3163;51.516;4.000;2023-04-24T13:34:48;14.50;99.90
6260;DHT22;3163;51.516;4.000;2023-04-24T13:37:14;14.50;99.90
6260;DHT22;3163;51.516;4.000;2023-04-24T13:39:40;14.40;99.90
6260;DHT22;3163;51.516;4.000;2023-04-24T13:42:06;14.50;99.90
6260;DHT22;3163;51.516;4.000;2023-04-24T13:44:32;14.70;99.90
6260;DHT22;3163;51.516;4.000;2023-04-24T13:46:58;14.70;99.90
6260;DHT22;3163;51.516;4.000;2023-04-24T13:49:25;14.80;99.90
6260;DHT22;3163;51.516;4.000;2023-04-24T13:51:51;14.80;99.90
6260;DHT22;3163;51.516;4.000;2023-04-24T13:54:17;14.90;99.90
6260;DHT22;3163;51.516;4.000;2023-04-24T13:56:42;14.80;99.90
6260;DHT22;3163;51.516;4.000;2023-04-24T13:59:08;14.80;99.90
6260;DHT22;3163;51.516;4.000;2023-04-24T14:01:34;14.70;99.90
6260;DHT22;3163;51.516;4.000;2023-04-24T14:04:00;14.70;99.90
6260;DHT22;3163;51.516;4.000;2023-04-24T14:06:26;14.60;99.90
6260;DHT22;3163;51.516;4.000;2023-04-24T14:08:52;14.60;99.90
6260;DHT22;3163;51.516;4.000;2023-04-24T14:11:18;14.40;99.90
6260;DHT22;3163;51.516;4.000;2023-04-24T14:13:44;14.50;99.90
6260;DHT22;3163;51.516;4.000;2023-04-24T14:16:11;14.50;99.90
6260;DHT22;3163;51.516;4.000;2023-04-24T14:18:36;14.50;99.90
6260;DHT22;3163;51.516;4.000;2023-04-24T14:21:05;14.50;99.90
6260;DHT22;3163;51.516;4.000;2023-04-24T14:23:31;14.60;99.90
6260;DHT22;3163;51.516;4.000;2023-04-24T14:25:58;14.60;99.90
6260;DHT22;3163;51.516;4.000;2023-04-24T14:28:24;14.60;99.90
6260;DHT22;3163;51.516;4.000;2023-04-24T14:30:50;14.60;99.90
6260;DHT22;3163;51.516;4.000;2023-04-24T14:33:16;14.50;99.90
6260;DHT22;3163;51.516;4.000;2023-04-24T14:35:41;14.50;99.90
6260;DHT22;3163;51.516;4.000;2023-04-24T14:38:08;14.50;99.90
6260;DHT22;3163;51.516;4.000;2023-04-24T14:40:34;14.40;99.90
6260;DHT22;3163;51.516;4.000;2023-04-24T14:43:00;14.30;99.90
6260;DHT22;3163;51.516;4.000;2023-04-24T14:45:26;14.40;99.90
6260;DHT22;3163;51.516;4.000;2023-04-24T14:47:52;14.40;99.90
6260;DHT22;3163;51.516;4.000;2023-04-24T14:50:18;14.30;99.90
6260;DHT22;3163;51.516;4.000;2023-04-24T14:52:44;14.40;99.90
6260;DHT22;3163;51.516;4.000;2023-04-24T14:55:09;14.40;99.90
6260;DHT22;3163;51.516;4.000;2023-04-24T14:57:35;14.50;99.90
6260;DHT22;3163;51.516;4.000;2023-04-24T15:00:03;14.60;99.90
6260;DHT22;3163;51.516;4.000;2023-04-24T15:02:30;14.60;99.90
6260;DHT22;3163;51.516;4.000;2023-04-24T15:04:56;14.70;99.90
6260;DHT22;3163;51.516;4.000;2023-04-24T15:07:21;14.80;99.90
6260;DHT22;3163;51.516;4.000;2023-04-24T15:09:47;14.80;99.90
6260;DHT22;3163;51.516;4.000;2023-04-24T15:12:13;14.80;99.90
6260;DHT22;3163;51.516;4.000;2023-04-24T15:14:38;15.00;99.90
6260;DHT22;3163;51.516;4.000;2023-04-24T15:17:04;15.10;99.90
6260;DHT22;3163;51.516;4.000;2023-04-24T15:19:30;15.00;99.90
6260;DHT22;3163;51.516;4.000;2023-04-24T15:21:56;14.90;99.90
6260;DHT22;3163;51.516;4.000;2023-04-24T15:24:22;15.10;99.90
6260;DHT22;3163;51.516;4.000;2023-04-24T15:26:47;14.90;99.90
6260;DHT22;3163;51.516;4.000;2023-04-24T15:29:13;15.10;99.90
6260;DHT22;3163;51.516;4.000;2023-04-24T15:31:39;15.00;99.90
6260;DHT22;3163;51.516;4.000;2023-04-24T15:34:05;15.00;99.90
6260;DHT22;3163;51.516;4.000;2023-04-24T15:36:31;15.20;99.90
6260;DHT22;3163;51.516;4.000;2023-04-24T15:38:57;15.30;99.90
6260;DHT22;3163;51.516;4.000;2023-04-24T15:41:23;15.20;99.90
6260;DHT22;3163;51.516;4.000;2023-04-24T15:43:49;15.20;99.90
6260;DHT22;3163;51.516;4.000;2023-04-24T15:46:14;15.30;99.90
6260;DHT22;3163;51.516;4.000;2023-04-24T15:48:42;15.30;99.90
6260;DHT22;3163;51.516;4.000;2023-04-24T15:51:07;15.20;99.90
6260;DHT22;3163;51.516;4.000;2023-04-24T15:53:33;15.20;99.90
6260;DHT22;3163;51.516;4.000;2023-04-24T15:55:59;15.10;99.90
6260;DHT22;3163;51.516;4.000;2023-04-24T15:58:25;14.90;99.90
6260;DHT22;3163;51.516;4.000;2023-04-24T16:00:51;15.00;99.90
6260;DHT22;3163;51.516;4.000;2023-04-24T16:03:18;14.80;99.90
6260;DHT22;3163;51.516;4.000;2023-04-24T16:05:44;15.00;99.90
6260;DHT22;3163;51.516;4.000;2023-04-24T16:08:10;14.90;99.90